GFLL

Lungi International Airport

Freetown, Sierra Leone
TAF GFLL 182300Z 1900/2006 28005KT 9000 -HZ NSC TEMPO 1906/1910 VRB02KT 5000 BR FEW015 BECMG 1912/1914 28008KT 8000 HZ NSC TEMPO 1922/2003 29005KT 9000 NSC
Issued Valid From Valid To
Jan-18 @ 23:00 UTC
(4 hours ago)
Jan-19 @ 00:00 UTC
(3 hours ago)
Jan-20 @ 06:00 UTC
(-1 days ago)
Jan-19 @ 00:00 to Jan-19 @ 12:00
TAF GFLL 182300Z 1900/2006 28005KT 9000 -HZ NSC
Wind Visibility Clouds Conditions
280° at 5 knots 8,996 meters
  • No significant clouds
  • Light Haze
Temporary Jan-19 @ 06:00 to Jan-19 @ 10:00
TEMPO 1906/1910 VRB02KT 5000 BR FEW015
Wind Visibility Clouds Conditions
Variable at 2 knots 5,005 meters
  • Few at 1,500' AGL
  • Mist
Becoming Jan-19 @ 12:00 to Jan-20 @ 06:00
BECMG 1912/1914 28008KT 8000 HZ NSC
Wind Visibility Clouds Conditions
280° at 8 knots 7,998 meters
  • No significant clouds
  • Haze
Temporary Jan-19 @ 22:00 to Jan-20 @ 03:00
TEMPO 1922/2003 29005KT 9000 NSC
Wind Visibility Clouds
290° at 5 knots 8,996 meters
  • No significant clouds
TAF GFLL 182300Z 1900/2006 28005KT 9000 -HZ NSC TEMPO 1906/1910 VRB02KT 5000 BR FEW015 BECMG 1912/1914 28008KT 8000 HZ NSC TEMPO 1922/2003 29005KT 9000 NSC
Issued Jan-18 @ 23:00 UTC
(4 hours ago)
Valid From Jan-19 @ 00:00 UTC
(3 hours ago)
Valid To Jan-20 @ 06:00 UTC
(-1 days ago)
Jan-19 @ 00:00 - Jan-19 @ 12:00
Wind Visibility
280° at 5 knots 8,996 meters
Clouds
  • No significant clouds
Conditions
  • Light Haze
Temporary Jan-19 @ 06:00 - Jan-19 @ 10:00
Wind Visibility
Variable at 2 knots 5,005 meters
Clouds
  • Few at 1,500' AGL
Conditions
  • Mist
Becoming Jan-19 @ 12:00 - Jan-20 @ 06:00
Wind Visibility
280° at 8 knots 7,998 meters
Clouds
  • No significant clouds
Conditions
  • Haze
Temporary Jan-19 @ 22:00 - Jan-20 @ 03:00
Wind Visibility
290° at 5 knots 8,996 meters
Clouds
  • No significant clouds